Terminal Aerodrome Forecast
Issued by NWS Louisville, KY

Home | Current Version | Previous Version | Text Only | Print | Product List | Glossary On
Versions: 1 2 3 4 5 6 7 8 9 10 11 12 13 14 15 16 17 18 19 20 21 22 23 24 25 26
000
FTUS43 KLMK 140217 AAA
TAFBWG
TAF AMD
KBWG 140217Z 1402/1424 04003KT 3SM -DZ BR OVC006
     FM140300 00000KT 2SM -DZ BR OVC004
      TEMPO 1406/1410 1/2SM DZ FG OVC002
     FM141800 VRB03KT 2SM -DZ BR OVC006
     FM142100 VRB03KT 4SM -RA BR OVC004=

USA.gov is the U.S. government's official web portal to all federal, state and local government web resources and services.